Time;durP1;ratioP1;P1;durP2;ratioP2;P2;SDS_P1;SDS_P2;PMS_P1;PMS_P2;Temp;Humidity;BMP_temperature;BMP_pressure;BME280_temperature;BME280_humidity;BME280_pressure;Samples;Min_cycle;Max_cycle;Signal;HPM_P1;HPM_P2
2023/08/12 00:01:39;;;;;;;20.20;10.48;;;20.70;99.90;;;;;;5044788;28;20036;-64
2023/08/12 00:04:05;;;;;;;20.25;10.68;;;20.70;99.90;;;;;;5043040;28;20028;-64
2023/08/12 00:06:30;;;;;;;17.35;10.68;;;20.70;99.90;;;;;;5041381;28;20098;-64
2023/08/12 00:08:56;;;;;;;23.52;11.63;;;20.70;99.90;;;;;;5041547;28;20036;-62
2023/08/12 00:11:22;;;;;;;20.75;10.93;;;20.60;99.90;;;;;;5042764;28;20095;-63
2023/08/12 00:13:47;;;;;;;18.25;10.57;;;20.60;99.90;;;;;;5045634;28;20383;-64
2023/08/12 00:16:13;;;;;;;15.93;10.35;;;20.60;99.90;;;;;;5044540;28;20029;-60
2023/08/12 00:18:38;;;;;;;17.38;10.38;;;20.50;99.90;;;;;;5042587;28;20450;-64
2023/08/12 00:21:09;;;;;;;18.85;9.93;;;20.50;99.90;;;;;;5047470;28;20029;-64
2023/08/12 00:23:39;;;;;;;18.13;9.25;;;20.50;99.90;;;;;;5044407;28;20378;-63
2023/08/12 00:26:04;;;;;;;17.13;9.82;;;20.50;99.90;;;;;;5047401;28;20100;-63
2023/08/12 00:28:30;;;;;;;16.25;10.10;;;20.50;99.90;;;;;;5041601;28;20107;-63
2023/08/12 00:30:55;;;;;;;17.48;10.20;;;20.50;99.90;;;;;;5040276;28;20033;-64
2023/08/12 00:33:21;;;;;;;18.63;10.75;;;20.50;99.90;;;;;;5045249;28;20390;-64
2023/08/12 00:35:47;;;;;;;18.30;11.05;;;20.50;99.90;;;;;;5054190;28;20028;-64
2023/08/12 00:38:12;;;;;;;21.10;10.98;;;20.50;99.90;;;;;;5050322;28;20128;-61
2023/08/12 00:40:38;;;;;;;14.45;10.07;;;20.50;99.90;;;;;;5037608;28;20036;-64
2023/08/12 00:43:03;;;;;;;16.45;10.45;;;20.40;99.90;;;;;;5047051;28;20021;-64
2023/08/12 00:45:29;;;;;;;18.35;9.70;;;20.30;99.90;;;;;;5037494;28;20033;-63
2023/08/12 00:47:55;;;;;;;18.08;9.52;;;20.30;99.90;;;;;;5026980;28;20527;-63
2023/08/12 00:50:21;;;;;;;17.42;10.57;;;20.20;99.90;;;;;;5048556;28;20857;-63
2023/08/12 00:52:48;;;;;;;15.82;10.20;;;20.20;99.90;;;;;;5047920;28;20090;-63
2023/08/12 00:55:14;;;;;;;17.20;8.80;;;20.20;99.90;;;;;;5047908;28;20036;-64
2023/08/12 00:57:40;;;;;;;15.68;8.80;;;20.20;99.90;;;;;;5037145;28;20020;-64
2023/08/12 01:00:06;;;;;;;20.58;10.93;;;20.20;99.90;;;;;;5045174;28;20505;-64
2023/08/12 01:02:32;;;;;;;17.67;10.18;;;20.10;99.90;;;;;;5039612;28;20025;-64
2023/08/12 01:04:58;;;;;;;16.58;11.60;;;20.10;99.90;;;;;;5039959;28;20041;-63
2023/08/12 01:07:24;;;;;;;15.93;10.10;;;20.10;99.90;;;;;;5045269;28;20068;-64
2023/08/12 01:09:49;;;;;;;17.25;10.93;;;20.10;99.90;;;;;;5039860;28;20390;-64
2023/08/12 01:12:39;;;;;;;18.02;10.35;;;20.20;99.90;;;;;;5040270;28;20041;-63
2023/08/12 01:15:12;;;;;;;14.40;8.95;;;20.20;99.90;;;;;;5042048;28;20390;-64
2023/08/12 01:17:41;;;;;;;17.60;10.55;;;20.10;99.90;;;;;;5043421;28;20017;-64
2023/08/12 01:20:08;;;;;;;17.02;9.55;;;20.10;99.90;;;;;;5038033;28;20033;-64
2023/08/12 01:22:39;;;;;;;18.90;10.93;;;20.10;99.90;;;;;;5038486;28;20022;-64
2023/08/12 01:25:05;;;;;;;19.08;10.88;;;20.10;99.90;;;;;;5044479;28;20025;-64
2023/08/12 01:27:30;;;;;;;14.30;10.52;;;20.00;99.90;;;;;;5041949;28;20026;-64
2023/08/12 01:29:57;;;;;;;19.58;11.55;;;20.00;99.90;;;;;;5049314;28;20028;-64
2023/08/12 01:32:53;;;;;;;15.27;11.23;;;19.90;99.90;;;;;;5041447;28;20033;-63
2023/08/12 01:35:31;;;;;;;17.88;12.10;;;19.90;99.90;;;;;;5040346;28;20792;-64
2023/08/12 01:37:59;;;;;;;21.85;11.88;;;19.90;99.90;;;;;;5033534;28;20029;-64
2023/08/12 01:40:26;;;;;;;18.50;12.57;;;19.90;99.90;;;;;;5044691;28;20029;-64
2023/08/12 01:42:52;;;;;;;17.02;11.77;;;19.90;99.90;;;;;;5047610;28;20013;-64
2023/08/12 01:45:18;;;;;;;18.38;11.70;;;19.90;99.90;;;;;;5043783;28;20402;-64
2023/08/12 01:47:44;;;;;;;22.75;12.77;;;19.90;99.90;;;;;;5008218;28;20063;-64
2023/08/12 01:50:10;;;;;;;14.48;10.07;;;19.90;99.90;;;;;;5044809;28;20630;-61
2023/08/12 01:52:36;;;;;;;19.50;11.23;;;19.90;99.90;;;;;;5046577;28;20448;-64
2023/08/12 01:55:02;;;;;;;21.95;10.98;;;19.90;99.90;;;;;;5042324;28;20021;-64
2023/08/12 01:57:27;;;;;;;19.50;12.45;;;19.90;99.90;;;;;;5039124;28;20123;-64
2023/08/12 01:59:53;;;;;;;17.60;11.88;;;19.80;99.90;;;;;;5040964;28;20141;-64
2023/08/12 02:02:18;;;;;;;19.10;11.38;;;19.80;99.90;;;;;;5044041;28;20025;-64
2023/08/12 02:04:44;;;;;;;17.17;12.13;;;19.80;99.90;;;;;;5036836;28;20029;-64
2023/08/12 02:07:10;;;;;;;23.00;12.07;;;19.80;99.90;;;;;;5034966;28;20028;-64
2023/08/12 02:09:35;;;;;;;18.70;11.30;;;19.80;99.90;;;;;;5041592;28;20064;-64
2023/08/12 02:12:01;;;;;;;15.55;10.55;;;19.80;99.90;;;;;;5039506;28;20079;-64
2023/08/12 02:14:26;;;;;;;17.60;9.95;;;19.80;99.90;;;;;;5048957;28;20104;-64
2023/08/12 02:16:52;;;;;;;15.38;9.50;;;19.70;99.90;;;;;;5044644;28;20394;-64
2023/08/12 02:19:18;;;;;;;12.18;7.82;;;19.70;99.90;;;;;;5041935;28;20065;-64
2023/08/12 02:21:43;;;;;;;12.43;8.02;;;19.70;99.90;;;;;;5039235;28;20025;-63
2023/08/12 02:24:09;;;;;;;16.13;8.40;;;19.70;99.90;;;;;;5039041;28;20098;-64
2023/08/12 02:26:35;;;;;;;10.93;8.38;;;19.70;99.90;;;;;;5038649;28;20025;-65
2023/08/12 02:29:00;;;;;;;12.05;7.97;;;19.70;99.90;;;;;;5042452;28;20071;-64
2023/08/12 02:31:26;;;;;;;14.38;7.63;;;19.60;99.90;;;;;;5040120;28;20033;-63
2023/08/12 02:33:52;;;;;;;16.40;8.48;;;19.70;99.90;;;;;;5038236;28;20086;-64
2023/08/12 02:36:17;;;;;;;17.15;8.25;;;19.60;99.90;;;;;;5040352;28;20032;-63
2023/08/12 02:38:43;;;;;;;11.20;7.95;;;19.60;99.90;;;;;;5037034;28;20108;-64
2023/08/12 02:41:08;;;;;;;14.20;8.38;;;19.60;99.90;;;;;;5039852;28;20520;-64
2023/08/12 02:43:35;;;;;;;11.57;8.00;;;19.60;99.90;;;;;;5035706;28;20025;-64
2023/08/12 02:46:00;;;;;;;15.90;8.02;;;19.60;99.90;;;;;;5038403;28;20025;-64
2023/08/12 02:48:26;;;;;;;10.57;7.32;;;19.60;99.90;;;;;;5019885;28;20060;-64
2023/08/12 02:50:51;;;;;;;10.73;7.30;;;19.60;99.90;;;;;;5036142;28;20545;-64
2023/08/12 02:53:17;;;;;;;12.40;7.93;;;19.60;99.90;;;;;;5039010;28;20032;-64
2023/08/12 02:55:45;;;;;;;11.60;7.32;;;19.60;99.90;;;;;;5043409;28;20083;-64
2023/08/12 02:58:10;;;;;;;11.88;7.00;;;19.60;99.90;;;;;;5046590;28;20520;-63
2023/08/12 03:00:36;;;;;;;12.68;7.07;;;19.70;99.90;;;;;;5039275;28;20104;-62
2023/08/12 03:03:02;;;;;;;11.55;6.90;;;19.70;99.90;;;;;;5036321;28;20013;-64
2023/08/12 03:05:27;;;;;;;10.82;6.85;;;19.70;99.90;;;;;;5040662;28;20406;-63
2023/08/12 03:07:53;;;;;;;11.80;6.00;;;19.70;99.90;;;;;;5040278;28;20038;-64
2023/08/12 03:10:19;;;;;;;9.75;6.63;;;19.60;99.90;;;;;;5028534;28;20068;-63
2023/08/12 03:12:44;;;;;;;11.93;6.10;;;19.60;99.90;;;;;;5037302;28;20041;-63
2023/08/12 03:15:10;;;;;;;13.93;6.57;;;19.60;99.90;;;;;;5037498;28;20025;-64
2023/08/12 03:17:38;;;;;;;10.75;6.57;;;19.60;99.90;;;;;;5037094;28;20112;-64
2023/08/12 03:20:05;;;;;;;9.20;6.18;;;19.60;99.90;;;;;;5038924;28;20083;-64
2023/08/12 03:22:31;;;;;;;14.13;6.32;;;19.60;99.90;;;;;;5039618;28;20029;-64
2023/08/12 03:24:57;;;;;;;10.63;6.28;;;19.50;99.90;;;;;;5047492;28;20021;-64
2023/08/12 03:27:22;;;;;;;13.90;6.38;;;19.60;99.90;;;;;;5042650;28;20025;-64
2023/08/12 03:29:48;;;;;;;11.90;6.85;;;19.60;99.90;;;;;;5031796;28;20036;-64
2023/08/12 03:32:13;;;;;;;8.23;6.30;;;19.60;99.90;;;;;;5038933;28;20398;-62
2023/08/12 03:34:39;;;;;;;11.85;5.93;;;19.60;99.90;;;;;;5035979;28;20036;-64
2023/08/12 03:37:05;;;;;;;12.50;6.43;;;19.60;99.90;;;;;;5037603;28;20034;-64
2023/08/12 03:39:30;;;;;;;8.50;6.50;;;19.60;99.90;;;;;;5041074;28;20040;-64
2023/08/12 03:41:56;;;;;;;9.35;6.35;;;19.50;99.90;;;;;;5044819;28;20133;-64
2023/08/12 03:44:22;;;;;;;10.63;7.05;;;19.50;99.90;;;;;;5046041;28;20096;-63
2023/08/12 03:46:47;;;;;;;12.18;7.13;;;19.60;99.90;;;;;;5043214;28;20064;-64
2023/08/12 03:49:13;;;;;;;10.18;6.80;;;19.60;99.90;;;;;;5013679;28;20103;-64
2023/08/12 03:51:39;;;;;;;11.98;7.20;;;19.50;99.90;;;;;;5050847;28;20025;-64
2023/08/12 03:54:05;;;;;;;13.68;8.35;;;19.50;99.90;;;;;;5035057;28;20040;-64
2023/08/12 03:56:30;;;;;;;12.70;7.18;;;19.50;99.90;;;;;;5044180;28;20036;-64
2023/08/12 03:58:56;;;;;;;10.57;7.47;;;19.60;99.90;;;;;;5038132;28;20040;-63
2023/08/12 04:01:21;;;;;;;13.73;8.07;;;19.50;99.90;;;;;;5044961;28;20032;-63
2023/08/12 04:03:47;;;;;;;15.05;8.40;;;19.50;99.90;;;;;;5045292;28;20453;-64
2023/08/12 04:06:13;;;;;;;11.55;8.02;;;19.50;99.90;;;;;;5036928;28;20020;-62
2023/08/12 04:08:38;;;;;;;13.65;9.13;;;19.50;99.90;;;;;;5045326;28;20029;-64
2023/08/12 04:11:04;;;;;;;14.07;8.52;;;19.50;99.90;;;;;;5041314;28;20025;-63
2023/08/12 04:13:30;;;;;;;13.27;8.90;;;19.50;99.90;;;;;;5042357;28;20494;-64
2023/08/12 04:15:56;;;;;;;9.95;8.02;;;19.40;99.90;;;;;;5039970;28;20033;-64
2023/08/12 04:18:21;;;;;;;12.23;8.15;;;19.40;99.90;;;;;;5039406;28;20033;-64
2023/08/12 04:20:50;;;;;;;16.80;10.02;;;19.40;99.90;;;;;;5039463;28;20033;-63
2023/08/12 04:23:15;;;;;;;12.43;9.05;;;19.40;99.90;;;;;;5036336;28;20021;-64
2023/08/12 04:25:45;;;;;;;17.60;10.45;;;19.40;99.90;;;;;;5040095;28;20041;-64
2023/08/12 04:28:11;;;;;;;11.85;8.88;;;19.30;99.90;;;;;;5047031;28;20070;-64
2023/08/12 04:30:43;;;;;;;11.60;8.57;;;19.30;99.90;;;;;;5045451;28;20025;-64
2023/08/12 04:33:09;;;;;;;18.58;9.23;;;19.30;99.90;;;;;;5042625;28;20021;-64
2023/08/12 04:35:35;;;;;;;13.45;9.15;;;19.20;99.90;;;;;;5036679;28;20033;-63
2023/08/12 04:38:00;;;;;;;12.75;8.77;;;19.20;99.90;;;;;;5040977;28;20025;-64
2023/08/12 04:40:26;;;;;;;16.08;9.27;;;19.20;99.90;;;;;;5037417;28;20112;-63
2023/08/12 04:42:51;;;;;;;12.45;8.73;;;19.20;99.90;;;;;;5042869;28;20021;-64
2023/08/12 04:45:17;;;;;;;13.75;9.48;;;19.20;99.90;;;;;;5043071;28;20056;-64
2023/08/12 04:47:42;;;;;;;16.25;9.35;;;19.30;99.90;;;;;;5013556;28;20033;-63
2023/08/12 04:50:08;;;;;;;13.00;8.27;;;19.30;99.90;;;;;;5044892;28;20475;-63
2023/08/12 04:52:34;;;;;;;11.07;8.32;;;19.20;99.90;;;;;;5043052;28;21664;-64
2023/08/12 04:54:59;;;;;;;17.17;9.13;;;19.20;99.90;;;;;;5043690;28;20025;-63
2023/08/12 04:57:25;;;;;;;12.43;8.68;;;19.30;99.90;;;;;;5043145;28;20017;-64
2023/08/12 04:59:51;;;;;;;15.90;7.78;;;19.20;99.90;;;;;;5038470;28;20033;-63
2023/08/12 05:02:18;;;;;;;12.35;7.50;;;19.20;99.90;;;;;;5040277;28;20025;-64
2023/08/12 05:04:48;;;;;;;11.15;7.65;;;19.30;99.90;;;;;;5038953;28;20028;-64
2023/08/12 05:07:14;;;;;;;7.60;6.00;;;19.30;99.90;;;;;;5040637;28;20624;-65
2023/08/12 05:09:39;;;;;;;9.65;7.05;;;19.40;99.90;;;;;;5035825;28;20033;-64
2023/08/12 05:12:05;;;;;;;12.40;6.55;;;19.50;99.90;;;;;;5037464;28;20028;-64
2023/08/12 05:14:31;;;;;;;9.93;6.35;;;19.70;99.90;;;;;;5043627;28;20037;-63
2023/08/12 05:16:56;;;;;;;8.57;5.63;;;20.20;99.90;;;;;;5043145;28;20031;-64
2023/08/12 05:19:22;;;;;;;7.47;4.88;;;20.50;99.90;;;;;;5043623;28;20063;-64
2023/08/12 05:21:48;;;;;;;8.20;4.28;;;20.90;99.90;;;;;;5045802;28;20055;-64
2023/08/12 05:24:16;;;;;;;4.47;2.85;;;22.00;99.90;;;;;;5044524;28;20445;-64
2023/08/12 05:26:42;;;;;;;5.13;3.13;;;23.30;99.90;;;;;;5041425;28;20029;-65
2023/08/12 05:29:08;;;;;;;4.35;3.28;;;24.50;99.90;;;;;;5050379;28;20725;-64
2023/08/12 05:31:33;;;;;;;4.53;3.00;;;24.70;99.90;;;;;;5038564;28;20032;-65
2023/08/12 05:33:59;;;;;;;4.10;2.78;;;25.00;99.90;;;;;;5039509;28;20036;-64
2023/08/12 05:36:25;;;;;;;5.72;2.42;;;25.60;99.90;;;;;;5045872;28;20100;-64
2023/08/12 05:38:51;;;;;;;11.23;2.60;;;26.20;99.90;;;;;;5049724;28;20116;-63
2023/08/12 05:41:16;;;;;;;6.32;2.72;;;26.10;99.90;;;;;;5042599;28;20638;-64
2023/08/12 05:43:42;;;;;;;4.80;2.58;;;26.00;99.90;;;;;;5049100;28;20025;-64
2023/08/12 05:46:07;;;;;;;4.03;2.63;;;25.80;99.90;;;;;;5043738;28;20024;-65
2023/08/12 05:48:33;;;;;;;5.88;2.85;;;25.70;99.90;;;;;;5045079;28;20018;-64
2023/08/12 05:50:59;;;;;;;4.25;2.72;;;25.10;99.90;;;;;;5040567;28;20069;-64
2023/08/12 05:53:24;;;;;;;3.55;2.70;;;24.40;99.90;;;;;;5037152;28;20025;-64
2023/08/12 05:55:50;;;;;;;4.57;2.90;;;23.80;99.90;;;;;;5044545;28;20743;-64
2023/08/12 05:58:15;;;;;;;5.68;2.90;;;23.30;99.90;;;;;;5034444;28;20032;-63
2023/08/12 06:00:45;;;;;;;4.90;2.90;;;22.90;99.90;;;;;;5045167;28;20040;-64
2023/08/12 06:03:11;;;;;;;4.30;3.10;;;22.60;99.90;;;;;;5037529;28;20044;-64
2023/08/12 06:05:37;;;;;;;4.35;3.22;;;22.30;99.90;;;;;;5036810;28;20426;-64
2023/08/12 06:08:02;;;;;;;4.45;3.08;;;22.00;99.90;;;;;;5041490;28;20028;-64
2023/08/12 06:10:28;;;;;;;5.72;3.67;;;21.80;99.90;;;;;;5045255;28;20040;-64
2023/08/12 06:12:53;;;;;;;7.32;3.65;;;21.60;99.90;;;;;;5044177;28;20409;-64
2023/08/12 06:15:19;;;;;;;5.57;3.65;;;21.40;99.90;;;;;;5046229;28;20041;-64
2023/08/12 06:17:45;;;;;;;10.85;4.60;;;21.20;99.90;;;;;;5038011;28;20113;-64
2023/08/12 06:20:11;;;;;;;7.50;4.47;;;21.00;99.90;;;;;;5039799;28;20043;-64
2023/08/12 06:22:37;;;;;;;11.48;4.80;;;20.80;99.90;;;;;;5044089;28;20021;-64
2023/08/12 06:25:03;;;;;;;7.38;4.95;;;20.60;99.90;;;;;;5046614;28;20390;-63
2023/08/12 06:27:28;;;;;;;7.70;5.82;;;20.50;99.90;;;;;;5043909;28;20033;-64
2023/08/12 06:29:54;;;;;;;8.00;5.60;;;20.40;99.90;;;;;;5054657;28;20029;-64
2023/08/12 06:32:20;;;;;;;9.18;5.82;;;20.30;99.90;;;;;;5036393;28;20108;-63
2023/08/12 06:34:45;;;;;;;8.07;6.03;;;20.30;99.90;;;;;;5044362;28;20387;-64
2023/08/12 06:37:11;;;;;;;11.75;6.65;;;20.20;99.90;;;;;;5041646;28;20409;-64
2023/08/12 06:39:36;;;;;;;10.60;6.57;;;20.20;99.90;;;;;;5043042;28;20952;-64
2023/08/12 06:42:03;;;;;;;8.80;6.13;;;20.10;99.90;;;;;;5043570;28;20083;-63
2023/08/12 06:44:29;;;;;;;11.00;6.35;;;20.10;99.90;;;;;;5047600;28;20029;-64
2023/08/12 06:46:54;;;;;;;11.35;7.35;;;20.00;99.90;;;;;;5035943;28;20124;-64
2023/08/12 06:49:20;;;;;;;8.77;6.28;;;20.00;99.90;;;;;;5037475;28;20029;-63
2023/08/12 06:51:46;;;;;;;8.27;6.43;;;20.00;99.90;;;;;;5040093;28;20033;-64
2023/08/12 06:54:11;;;;;;;6.35;4.50;;;20.00;99.90;;;;;;5039174;28;20036;-64
2023/08/12 06:56:37;;;;;;;8.27;5.20;;;20.10;99.90;;;;;;5034423;28;20033;-64
2023/08/12 06:59:02;;;;;;;10.38;5.38;;;20.10;99.90;;;;;;5038574;28;20482;-64
2023/08/12 07:01:28;;;;;;;7.82;4.03;;;20.10;99.90;;;;;;5037613;28;20033;-63
2023/08/12 07:03:54;;;;;;;4.82;3.65;;;20.20;99.90;;;;;;5037318;28;20025;-64
2023/08/12 07:06:19;;;;;;;6.05;3.30;;;20.20;99.90;;;;;;5036318;28;20479;-63
2023/08/12 07:08:45;;;;;;;3.95;3.08;;;20.30;99.90;;;;;;5034866;28;20065;-64
2023/08/12 07:11:10;;;;;;;5.72;3.17;;;20.40;99.90;;;;;;5044649;28;20037;-64
2023/08/12 07:13:36;;;;;;;4.82;3.15;;;20.50;99.90;;;;;;5033813;28;20034;-64
2023/08/12 07:16:01;;;;;;;5.25;3.38;;;20.60;99.90;;;;;;5037870;28;20486;-64
2023/08/12 07:18:28;;;;;;;6.03;3.22;;;20.90;99.90;;;;;;5040115;28;20207;-63
2023/08/12 07:20:54;;;;;;;4.72;3.28;;;21.10;99.90;;;;;;5043108;28;20025;-64
2023/08/12 07:23:19;;;;;;;3.88;2.78;;;21.30;99.90;;;;;;5037838;28;20026;-64
2023/08/12 07:25:48;;;;;;;4.38;2.83;;;21.50;99.90;;;;;;5048149;28;20769;-64
2023/08/12 07:28:13;;;;;;;4.35;3.08;;;21.70;99.90;;;;;;5042968;28;20072;-64
2023/08/12 07:30:39;;;;;;;7.25;2.80;;;22.00;99.90;;;;;;5040829;28;20508;-64
2023/08/12 07:33:05;;;;;;;8.82;2.50;;;22.30;99.90;;;;;;5044556;28;20375;-64
2023/08/12 07:35:30;;;;;;;5.43;2.25;;;22.60;99.90;;;;;;5035257;28;20096;-64
2023/08/12 07:37:56;;;;;;;2.58;2.10;;;22.70;99.90;;;;;;5041097;28;20156;-64
2023/08/12 07:40:22;;;;;;;3.45;2.47;;;22.70;99.90;;;;;;5039649;28;20048;-64
2023/08/12 07:42:47;;;;;;;4.05;2.20;;;22.70;99.90;;;;;;5044676;28;20029;-64
2023/08/12 07:45:13;;;;;;;2.40;1.92;;;22.90;99.90;;;;;;5046440;28;20032;-64
2023/08/12 07:47:39;;;;;;;5.47;2.40;;;22.80;99.90;;;;;;5039009;28;20399;-64
2023/08/12 07:50:05;;;;;;;3.08;1.58;;;22.70;99.90;;;;;;5039688;28;20024;-64
2023/08/12 07:52:30;;;;;;;5.07;1.80;;;22.80;99.90;;;;;;5037343;28;20391;-64
2023/08/12 07:54:56;;;;;;;4.03;2.30;;;22.60;99.90;;;;;;5041034;28;20029;-64
2023/08/12 07:57:24;;;;;;;2.47;1.85;;;22.70;99.90;;;;;;5036469;28;20025;-64
2023/08/12 07:59:52;;;;;;;5.45;1.88;;;22.80;99.90;;;;;;5035370;28;20029;-64
2023/08/12 08:02:18;;;;;;;3.50;1.80;;;22.90;99.90;;;;;;5044286;28;20033;-63
2023/08/12 08:04:44;;;;;;;3.10;1.80;;;23.20;99.90;;;;;;5046744;28;20033;-64
2023/08/12 08:07:10;;;;;;;5.05;1.58;;;23.40;99.90;;;;;;5049533;28;20021;-63
2023/08/12 08:09:36;;;;;;;3.75;1.80;;;24.20;99.90;;;;;;5040668;28;20421;-65
2023/08/12 08:12:02;;;;;;;2.30;1.60;;;24.50;99.90;;;;;;5043929;28;20077;-64
2023/08/12 08:14:28;;;;;;;2.80;1.55;;;25.20;99.90;;;;;;5045183;28;20255;-64
2023/08/12 08:16:53;;;;;;;2.85;1.45;;;26.30;99.90;;;;;;5045459;28;20546;-65
2023/08/12 08:19:19;;;;;;;2.88;1.58;;;26.90;99.90;;;;;;5040588;28;20052;-65
2023/08/12 08:21:45;;;;;;;3.33;1.50;;;26.80;99.90;;;;;;5039336;28;20036;-64
2023/08/12 08:24:12;;;;;;;2.55;1.70;;;26.50;99.90;;;;;;5037747;28;20112;-64
2023/08/12 08:26:41;;;;;;;1.55;1.10;;;26.60;99.90;;;;;;5042176;28;20410;-64
2023/08/12 08:29:06;;;;;;;3.05;1.67;;;26.80;99.90;;;;;;5040720;28;20053;-64
2023/08/12 08:31:32;;;;;;;2.95;1.58;;;27.30;99.90;;;;;;5043576;28;20059;-65
2023/08/12 08:33:58;;;;;;;2.08;1.48;;;27.40;99.90;;;;;;5040229;28;20254;-65
2023/08/12 08:36:24;;;;;;;3.63;1.75;;;27.40;99.90;;;;;;5038521;28;20033;-65
2023/08/12 08:38:50;;;;;;;2.35;1.23;;;27.80;99.90;;;;;;5046001;28;20037;-65
2023/08/12 08:41:16;;;;;;;3.92;1.42;;;27.10;99.90;;;;;;5038364;28;20029;-64
2023/08/12 08:43:46;;;;;;;2.85;1.33;;;26.60;99.90;;;;;;5036701;28;20107;-64
2023/08/12 08:46:15;;;;;;;2.15;1.50;;;26.40;99.90;;;;;;5034939;28;20399;-65
2023/08/12 08:48:44;;;;;;;5.78;1.67;;;26.20;99.90;;;;;;5045208;28;20064;-65
2023/08/12 08:51:11;;;;;;;3.80;1.52;;;26.00;99.90;;;;;;5042679;28;20040;-64
2023/08/12 08:53:41;;;;;;;3.90;1.55;;;26.00;99.90;;;;;;5041936;28;20052;-65
2023/08/12 08:56:11;;;;;;;2.80;1.40;;;26.50;99.90;;;;;;5041927;28;20108;-65
2023/08/12 08:58:37;;;;;;;3.95;1.25;;;27.10;99.90;;;;;;5041996;28;20040;-65
2023/08/12 09:01:03;;;;;;;6.03;1.20;;;27.50;99.90;;;;;;5035988;28;20116;-65
2023/08/12 09:03:29;;;;;;;2.25;1.40;;;28.90;99.90;;;;;;5041021;28;20096;-65
2023/08/12 09:05:57;;;;;;;3.67;1.30;;;29.50;99.90;;;;;;5040463;28;20025;-65
2023/08/12 09:08:24;;;;;;;2.95;1.30;;;29.70;99.90;;;;;;5038962;28;20029;-65
2023/08/12 09:10:50;;;;;;;4.07;1.52;;;29.00;99.90;;;;;;5041524;28;20021;-65
2023/08/12 09:13:18;;;;;;;2.58;1.42;;;29.00;99.90;;;;;;5041563;28;20052;-65
2023/08/12 09:15:44;;;;;;;2.22;1.33;;;28.10;99.90;;;;;;5043596;28;20508;-65
2023/08/12 09:18:09;;;;;;;2.20;1.23;;;27.20;99.90;;;;;;5042821;28;20108;-65
2023/08/12 09:20:35;;;;;;;1.23;0.90;;;26.20;99.90;;;;;;5046203;28;20032;-64
2023/08/12 09:23:02;;;;;;;4.50;1.60;;;25.60;99.90;;;;;;5049460;28;20055;-64
2023/08/12 09:25:31;;;;;;;2.33;1.13;;;25.00;99.90;;;;;;5041732;28;20018;-65
2023/08/12 09:28:00;;;;;;;4.68;2.25;;;24.60;99.90;;;;;;5043285;28;20029;-65
2023/08/12 09:30:30;;;;;;;2.55;1.17;;;24.30;99.90;;;;;;5046115;28;20032;-64
2023/08/12 09:33:06;;;;;;;4.97;1.73;;;24.10;99.90;;;;;;5036876;28;20106;-64
2023/08/12 09:35:37;;;;;;;4.75;1.60;;;24.00;99.90;;;;;;5038479;28;20034;-64
2023/08/12 09:38:05;;;;;;;4.97;1.60;;;24.20;99.90;;;;;;5046419;28;20071;-64
2023/08/12 09:40:33;;;;;;;4.47;1.50;;;24.30;99.90;;;;;;5040505;28;20037;-64
2023/08/12 09:42:59;;;;;;;6.22;1.27;;;24.30;99.90;;;;;;5038512;28;20048;-64
2023/08/12 09:45:25;;;;;;;1.75;1.10;;;24.40;99.90;;;;;;5038673;28;20029;-64
2023/08/12 09:47:52;;;;;;;3.30;1.40;;;24.60;99.90;;;;;;5042782;28;20033;-64
2023/08/12 09:50:20;;;;;;;2.65;1.30;;;24.90;99.90;;;;;;5040063;28;20031;-64
2023/08/12 09:52:46;;;;;;;3.00;1.55;;;25.10;99.90;;;;;;5038135;28;20114;-65
2023/08/12 09:55:16;;;;;;;3.50;1.20;;;25.90;99.90;;;;;;5040942;28;20028;-65
2023/08/12 09:57:43;;;;;;;2.65;1.35;;;26.70;99.90;;;;;;5045858;28;20651;-65
2023/08/12 10:00:16;;;;;;;3.22;1.38;;;26.90;99.90;;;;;;5037530;28;20854;-65
2023/08/12 10:02:43;;;;;;;4.10;1.55;;;27.50;99.90;;;;;;5038661;28;20082;-64
2023/08/12 10:05:12;;;;;;;5.63;1.40;;;27.60;99.90;;;;;;5040741;28;20029;-65
2023/08/12 10:07:39;;;;;;;2.47;1.27;;;27.20;99.90;;;;;;5045099;28;20029;-65
2023/08/12 10:10:06;;;;;;;2.75;1.50;;;27.00;99.90;;;;;;5041256;28;20068;-65
2023/08/12 10:12:33;;;;;;;4.78;1.27;;;26.90;99.90;;;;;;5041369;28;20025;-65
2023/08/12 10:15:00;;;;;;;2.45;1.33;;;26.50;99.90;;;;;;5037996;28;20033;-65
2023/08/12 10:17:26;;;;;;;3.55;1.52;;;26.20;99.90;;;;;;5038573;28;20138;-64
2023/08/12 10:19:57;;;;;;;1.70;1.20;;;25.80;99.90;;;;;;5034078;28;20025;-65
2023/08/12 10:22:25;;;;;;;2.83;1.55;;;25.20;99.90;;;;;;5037365;28;20510;-64
2023/08/12 10:24:51;;;;;;;4.70;1.35;;;25.00;99.90;;;;;;5037498;28;20522;-64
2023/08/12 10:27:18;;;;;;;4.28;1.35;;;24.70;99.90;;;;;;5047674;28;20055;-64
2023/08/12 10:29:45;;;;;;;2.10;1.38;;;24.20;99.90;;;;;;5042508;28;20025;-65
2023/08/12 10:32:11;;;;;;;2.40;1.30;;;24.10;99.90;;;;;;5040008;28;20047;-64
2023/08/12 10:34:36;;;;;;;5.50;1.73;;;23.90;99.90;;;;;;5047630;28;20108;-64
2023/08/12 10:37:02;;;;;;;2.78;1.40;;;23.70;99.90;;;;;;5043840;28;20487;-64
2023/08/12 10:39:31;;;;;;;2.92;1.35;;;23.60;99.90;;;;;;5044523;28;20021;-64
2023/08/12 10:41:58;;;;;;;3.67;1.08;;;23.60;99.90;;;;;;5040938;28;20067;-64
2023/08/12 10:44:39;;;;;;;1.75;1.20;;;23.40;99.90;;;;;;5044178;28;20475;-64
2023/08/12 10:47:11;;;;;;;3.20;1.55;;;23.40;99.90;;;;;;5039699;28;20067;-64
2023/08/12 10:49:44;;;;;;;2.95;1.63;;;23.60;99.90;;;;;;5037920;28;20075;-64
2023/08/12 10:52:29;;;;;;;3.72;1.50;;;23.50;99.90;;;;;;5043909;28;20718;-64
2023/08/12 10:55:15;;;;;;;3.28;1.40;;;23.70;99.90;;;;;;5044198;28;20033;-64
2023/08/12 10:57:41;;;;;;;6.32;1.90;;;24.10;99.90;;;;;;5043564;28;20513;-64
2023/08/12 11:00:13;;;;;;;1.92;1.20;;;24.70;99.90;;;;;;5042852;28;20040;-64
2023/08/12 11:02:40;;;;;;;3.58;1.58;;;25.50;99.90;;;;;;5073374;22;20018;-65
2023/08/12 11:05:10;;;;;;;2.28;1.40;;;26.10;99.90;;;;;;5050508;28;20028;-65
2023/08/12 11:07:44;;;;;;;2.75;1.50;;;26.60;99.90;;;;;;5060477;28;20019;-65
2023/08/12 11:10:14;;;;;;;2.95;1.42;;;26.90;99.90;;;;;;5069850;28;20051;-65
2023/08/12 11:12:42;;;;;;;2.72;1.25;;;27.20;99.90;;;;;;5056703;28;20122;-65
2023/08/12 11:15:08;;;;;;;2.05;1.05;;;27.10;99.90;;;;;;5042127;28;20617;-65
2023/08/12 11:17:39;;;;;;;2.45;1.20;;;27.10;99.90;;;;;;5047434;28;20167;-65
2023/08/12 11:20:06;;;;;;;1.95;1.13;;;26.80;99.90;;;;;;5043781;28;20032;-65
2023/08/12 11:22:36;;;;;;;2.40;1.20;;;26.50;99.90;;;;;;5022113;28;20492;-65
2023/08/12 11:25:02;;;;;;;2.03;1.27;;;26.00;99.90;;;;;;5044888;28;20019;-65
2023/08/12 11:27:28;;;;;;;2.85;1.30;;;25.90;99.90;;;;;;5038318;28;20022;-64
2023/08/12 11:29:53;;;;;;;2.58;1.15;;;25.30;99.90;;;;;;5041069;28;20450;-62
2023/08/12 11:32:19;;;;;;;3.50;1.20;;;25.00;99.90;;;;;;5044933;28;20108;-60
2023/08/12 11:34:45;;;;;;;2.67;1.50;;;24.90;99.90;;;;;;5039287;28;20103;-64
2023/08/12 11:37:10;;;;;;;2.53;1.35;;;24.70;99.90;;;;;;5045890;28;20036;-64
2023/08/12 11:39:37;;;;;;;3.88;1.15;;;24.40;99.90;;;;;;5042253;28;20483;-64
2023/08/12 11:42:03;;;;;;;2.45;1.27;;;24.40;99.90;;;;;;5041493;28;20051;-65
2023/08/12 11:44:29;;;;;;;2.05;1.38;;;24.30;99.90;;;;;;5050845;28;20019;-63
2023/08/12 11:46:54;;;;;;;1.48;0.77;;;24.20;99.90;;;;;;5037741;28;20096;-64
2023/08/12 11:49:20;;;;;;;4.25;1.15;;;24.20;99.90;;;;;;5033899;28;20087;-62
2023/08/12 11:51:48;;;;;;;5.50;1.40;;;24.50;99.90;;;;;;5047383;28;20108;-63
2023/08/12 11:54:14;;;;;;;3.92;1.35;;;24.70;99.90;;;;;;5051105;28;20027;-64
2023/08/12 11:56:41;;;;;;;1.23;0.90;;;24.70;99.90;;;;;;5035074;28;20061;-64
2023/08/12 11:59:06;;;;;;;3.85;1.10;;;25.00;99.90;;;;;;5041688;28;20025;-66
2023/08/12 12:01:32;;;;;;;4.20;1.10;;;25.00;99.90;;;;;;5041175;28;20109;-63
2023/08/12 12:04:01;;;;;;;2.05;1.38;;;25.00;99.90;;;;;;5043497;28;20108;-66
2023/08/12 12:06:36;;;;;;;2.65;1.20;;;25.00;99.90;;;;;;5052806;28;20027;-64
2023/08/12 12:09:09;;;;;;;5.82;1.10;;;24.90;99.90;;;;;;5048413;28;20017;-64
2023/08/12 12:11:36;;;;;;;1.50;1.00;;;25.10;99.90;;;;;;5051726;28;20052;-65
2023/08/12 12:14:07;;;;;;;3.70;1.17;;;25.00;99.90;;;;;;5035566;28;20040;-65
2023/08/12 12:16:39;;;;;;;3.30;1.27;;;25.30;99.90;;;;;;5048593;28;20031;-65
2023/08/12 12:19:05;;;;;;;2.30;1.03;;;25.50;99.90;;;;;;5033006;28;20025;-64
2023/08/12 12:21:39;;;;;;;3.22;1.35;;;25.70;99.90;;;;;;5041583;28;20039;-64
2023/08/12 12:24:05;;;;;;;1.27;0.90;;;25.90;99.90;;;;;;5052605;28;20025;-64
2023/08/12 12:26:32;;;;;;;4.88;1.05;;;26.20;99.90;;;;;;5052467;28;20363;-64
2023/08/12 12:28:57;;;;;;;1.23;1.00;;;26.10;99.90;;;;;;5052556;28;20375;-66
2023/08/12 12:31:23;;;;;;;1.60;1.10;;;26.00;99.90;;;;;;5041204;28;20040;-62
2023/08/12 12:33:48;;;;;;;1.65;1.08;;;25.60;99.90;;;;;;5041813;28;20387;-64
2023/08/12 12:36:14;;;;;;;2.15;1.25;;;25.30;99.90;;;;;;5045562;28;20108;-64
2023/08/12 12:38:40;;;;;;;1.88;1.08;;;25.20;99.90;;;;;;5046932;28;20021;-63